Svetoslava — V3RH5 — position and weather

sailwx.info

Track history (hours):
 
Tides and Currents Weather Stations Pressure Air Temp Water Temp Dewpoint Dewpoint Depression Visibility Wind Speed Wind Dir Waves Ship Positions

Svetoslava

Last reported at 2014-Jul-30 05:20 UTC. Time now 2014-Jul-31 01:30 UTC.
Position N 40°34' E 027°11'.

Length 138 m; draft 2.5 m.

Type: Cargo ship. MMSI: 312406000.

Date/timePositionNaut miles runAvg speedWind from/ knotsBaromVisibWave heightAir tempDewpointWater temp
2014-Jul-30 05:20N 40°34' E 027°11'6 6.8
2014-Jul-30 04:30N 40°32' E 027°04'7 7.1
2014-Jul-30 03:31N 40°29' E 026°56'60 5.0
2014-Jul-29 15:31N 39°44' E 026°04'94 6.7
2014-Jul-29 01:32N 38°12' E 025°36'7 6.9
2014-Jul-29 00:33N 38°06' E 025°33'8 6.8
2014-Jul-28 23:24N 37°58' E 025°29'23 7.1
2014-Jul-28 20:13N 37°37' E 025°20'5 7.4
2014-Jul-28 19:33N 37°32' E 025°18'7 7.5
2014-Jul-28 18:33N 37°29' E 025°10'7 7.1
2014-Jul-28 17:33N 37°25' E 025°02'3 2.6
2014-Jul-28 16:32N 37°25' E 024°58'0 0.0
2014-Jul-28 15:33N 37°25' E 024°58'0 0.0
2014-Jul-28 14:32N 37°25' E 024°58'0 0.0
2014-Jul-28 13:33N 37°25' E 024°58'0 0.0
2014-Jul-28 12:31N 37°25' E 024°58'0 0.0
2014-Jul-28 11:28N 37°25' E 024°58'0 0.0
2014-Jul-28 10:29N 37°25' E 024°58'0 0.0
2014-Jul-28 09:33N 37°25' E 024°58'0 0.0
2014-Jul-28 08:33N 37°25' E 024°58'0 0.0
2014-Jul-28 07:31N 37°25' E 024°58'0 0.0
2014-Jul-28 06:32N 37°25' E 024°58'3 3.5
2014-Jul-28 05:33N 37°26' E 025°02'6 6.3
2014-Jul-28 04:34N 37°21' E 025°08'6 6.0
2014-Jul-28 03:33N 37°17' E 025°02'7 6.9
2014-Jul-28 02:32N 37°14' E 024°54'7 7.2
2014-Jul-28 01:32N 37°10' E 024°46'10 7.4
2014-Jul-28 00:07N 37°05' E 024°35'42 7.5
2014-Jul-27 18:29N 36°44' E 023°49'  
Track history (hours):
 
Tides and Currents Weather Stations Pressure Air Temp Water Temp Dewpoint Dewpoint Depression Visibility Wind Speed Wind Dir Waves Ship Positions

Svetoslava

Last reported at 2014-Jul-30 05:20 UTC. Time now 2014-Jul-31 01:30 UTC.
Position N 40°34' E 027°11'.

Length 138 m; draft 2.5 m.

Type: Cargo ship. MMSI: 312406000.

Date/timePositionNaut miles runAvg speedWind from/ knotsBaromVisibWave heightAir tempDewpointWater temp
2014-Jul-30 05:20N 40°34' E 027°11'6 6.8
2014-Jul-30 04:30N 40°32' E 027°04'7 7.1
2014-Jul-30 03:31N 40°29' E 026°56'60 5.0
2014-Jul-29 15:31N 39°44' E 026°04'94 6.7
2014-Jul-29 01:32N 38°12' E 025°36'7 6.9
2014-Jul-29 00:33N 38°06' E 025°33'8 6.8
2014-Jul-28 23:24N 37°58' E 025°29'23 7.1
2014-Jul-28 20:13N 37°37' E 025°20'5 7.4
2014-Jul-28 19:33N 37°32' E 025°18'7 7.5
2014-Jul-28 18:33N 37°29' E 025°10'7 7.1
2014-Jul-28 17:33N 37°25' E 025°02'3 2.6
2014-Jul-28 16:32N 37°25' E 024°58'0 0.0
2014-Jul-28 15:33N 37°25' E 024°58'0 0.0
2014-Jul-28 14:32N 37°25' E 024°58'0 0.0
2014-Jul-28 13:33N 37°25' E 024°58'0 0.0
2014-Jul-28 12:31N 37°25' E 024°58'0 0.0
2014-Jul-28 11:28N 37°25' E 024°58'0 0.0
2014-Jul-28 10:29N 37°25' E 024°58'0 0.0
2014-Jul-28 09:33N 37°25' E 024°58'0 0.0
2014-Jul-28 08:33N 37°25' E 024°58'0 0.0
2014-Jul-28 07:31N 37°25' E 024°58'0 0.0
2014-Jul-28 06:32N 37°25' E 024°58'3 3.5
2014-Jul-28 05:33N 37°26' E 025°02'6 6.3
2014-Jul-28 04:34N 37°21' E 025°08'6 6.0
2014-Jul-28 03:33N 37°17' E 025°02'7 6.9
2014-Jul-28 02:32N 37°14' E 024°54'7 7.2
2014-Jul-28 01:32N 37°10' E 024°46'10 7.4
2014-Jul-28 00:07N 37°05' E 024°35'42 7.5
2014-Jul-27 18:29N 36°44' E 023°49'  

Dump ship's entire track history